sensor_id;sensor_type;location;lat;lon;timestamp;pressure;altitude;pressure_sealevel;temperature;humidity
81155;BME280;70631;50.436;7.826;2023-06-10T00:02:26;98890.41;;;19.02;58.49
81155;BME280;70631;50.436;7.826;2023-06-10T00:04:51;98906.19;;;18.99;58.34
81155;BME280;70631;50.436;7.826;2023-06-10T00:07:17;98903.91;;;18.96;58.57
81155;BME280;70631;50.436;7.826;2023-06-10T00:09:42;98894.38;;;18.93;58.35
81155;BME280;70631;50.436;7.826;2023-06-10T00:12:08;98898.31;;;18.90;58.67
81155;BME280;70631;50.436;7.826;2023-06-10T00:14:38;98904.28;;;18.86;58.67
81155;BME280;70631;50.436;7.826;2023-06-10T00:17:04;98896.81;;;18.81;58.70
81155;BME280;70631;50.436;7.826;2023-06-10T00:19:30;98895.97;;;18.81;58.62
81155;BME280;70631;50.436;7.826;2023-06-10T00:21:56;98896.19;;;18.79;58.57
81155;BME280;70631;50.436;7.826;2023-06-10T00:24:22;98892.84;;;18.77;58.95
81155;BME280;70631;50.436;7.826;2023-06-10T00:26:47;98900.13;;;18.77;59.57
81155;BME280;70631;50.436;7.826;2023-06-10T00:29:13;98899.69;;;18.73;59.19
81155;BME280;70631;50.436;7.826;2023-06-10T00:31:39;98895.34;;;18.72;59.37
81155;BME280;70631;50.436;7.826;2023-06-10T00:34:06;98891.38;;;18.68;59.26
81155;BME280;70631;50.436;7.826;2023-06-10T00:36:32;98896.53;;;18.63;59.52
81155;BME280;70631;50.436;7.826;2023-06-10T00:38:57;98895.06;;;18.60;59.86
81155;BME280;70631;50.436;7.826;2023-06-10T00:41:23;98896.69;;;18.55;59.81
81155;BME280;70631;50.436;7.826;2023-06-10T00:43:48;98896.69;;;18.55;59.70
81155;BME280;70631;50.436;7.826;2023-06-10T00:46:13;98892.53;;;18.52;59.64
81155;BME280;70631;50.436;7.826;2023-06-10T00:48:41;98893.78;;;18.50;59.68
81155;BME280;70631;50.436;7.826;2023-06-10T00:51:07;98898.28;;;18.43;59.77
81155;BME280;70631;50.436;7.826;2023-06-10T00:53:34;98888.31;;;18.37;59.97
81155;BME280;70631;50.436;7.826;2023-06-10T00:56:00;98895.78;;;18.35;60.30
81155;BME280;70631;50.436;7.826;2023-06-10T00:58:26;98899.91;;;18.24;60.56
81155;BME280;70631;50.436;7.826;2023-06-10T01:00:51;98909.56;;;18.12;61.14
81155;BME280;70631;50.436;7.826;2023-06-10T01:03:17;98908.50;;;18.06;61.11
81155;BME280;70631;50.436;7.826;2023-06-10T01:05:43;98908.91;;;18.03;61.06
81155;BME280;70631;50.436;7.826;2023-06-10T01:08:17;98902.03;;;18.00;61.31
81155;BME280;70631;50.436;7.826;2023-06-10T01:10:59;98904.69;;;17.94;61.23
81155;BME280;70631;50.436;7.826;2023-06-10T01:13:25;98906.97;;;17.97;61.27
81155;BME280;70631;50.436;7.826;2023-06-10T01:15:54;98901.59;;;17.97;61.21
81155;BME280;70631;50.436;7.826;2023-06-10T01:18:20;98904.69;;;17.94;61.56
81155;BME280;70631;50.436;7.826;2023-06-10T01:20:47;98913.16;;;17.91;61.72
81155;BME280;70631;50.436;7.826;2023-06-10T01:23:13;98910.66;;;17.89;61.74
81155;BME280;70631;50.436;7.826;2023-06-10T01:25:48;98901.44;;;17.77;61.84
81155;BME280;70631;50.436;7.826;2023-06-10T01:28:29;98905.78;;;17.71;62.01
81155;BME280;70631;50.436;7.826;2023-06-10T01:31:13;98908.03;;;17.68;61.76
81155;BME280;70631;50.436;7.826;2023-06-10T01:33:46;98911.72;;;17.67;61.69
81155;BME280;70631;50.436;7.826;2023-06-10T01:36:13;98908.66;;;17.70;62.12
81155;BME280;70631;50.436;7.826;2023-06-10T01:38:42;98905.34;;;17.68;62.41
81155;BME280;70631;50.436;7.826;2023-06-10T01:41:09;98904.88;;;17.64;62.54
81155;BME280;70631;50.436;7.826;2023-06-10T01:43:37;98900.28;;;17.58;62.75
81155;BME280;70631;50.436;7.826;2023-06-10T01:46:03;98915.59;;;17.58;62.58
81155;BME280;70631;50.436;7.826;2023-06-10T01:48:28;98906.03;;;17.55;62.65
81155;BME280;70631;50.436;7.826;2023-06-10T01:50:53;98913.66;;;17.52;62.85
81155;BME280;70631;50.436;7.826;2023-06-10T01:53:21;98901.41;;;17.49;62.96
81155;BME280;70631;50.436;7.826;2023-06-10T01:55:46;98909.69;;;17.48;62.73
81155;BME280;70631;50.436;7.826;2023-06-10T01:58:11;98912.97;;;17.43;62.79
81155;BME280;70631;50.436;7.826;2023-06-10T02:00:36;98919.78;;;17.39;63.18
81155;BME280;70631;50.436;7.826;2023-06-10T02:03:02;98911.06;;;17.37;63.16
81155;BME280;70631;50.436;7.826;2023-06-10T02:05:27;98908.94;;;17.32;63.20
81155;BME280;70631;50.436;7.826;2023-06-10T02:07:52;98916.19;;;17.32;63.29
81155;BME280;70631;50.436;7.826;2023-06-10T02:10:18;98912.84;;;17.30;63.23
81155;BME280;70631;50.436;7.826;2023-06-10T02:12:43;98922.16;;;17.27;63.18
81155;BME280;70631;50.436;7.826;2023-06-10T02:15:08;98921.53;;;17.25;63.20
81155;BME280;70631;50.436;7.826;2023-06-10T02:17:33;98930.19;;;17.21;63.10
81155;BME280;70631;50.436;7.826;2023-06-10T02:19:59;98923.53;;;17.17;63.17
81155;BME280;70631;50.436;7.826;2023-06-10T02:22:25;98930.69;;;17.09;63.08
81155;BME280;70631;50.436;7.826;2023-06-10T02:24:50;98931.69;;;17.08;62.88
81155;BME280;70631;50.436;7.826;2023-06-10T02:27:16;98930.22;;;17.06;63.10
81155;BME280;70631;50.436;7.826;2023-06-10T02:29:42;98935.56;;;16.99;63.69
81155;BME280;70631;50.436;7.826;2023-06-10T02:32:08;98924.53;;;16.94;63.69
81155;BME280;70631;50.436;7.826;2023-06-10T02:34:34;98928.59;;;16.90;63.60
81155;BME280;70631;50.436;7.826;2023-06-10T02:36:59;98928.16;;;16.87;63.69
81155;BME280;70631;50.436;7.826;2023-06-10T02:39:26;98931.03;;;16.85;63.96
81155;BME280;70631;50.436;7.826;2023-06-10T02:41:51;98934.50;;;16.79;64.07
81155;BME280;70631;50.436;7.826;2023-06-10T02:44:18;98932.19;;;16.76;64.24
81155;BME280;70631;50.436;7.826;2023-06-10T02:46:44;98935.47;;;16.71;64.19
81155;BME280;70631;50.436;7.826;2023-06-10T02:49:09;98934.50;;;16.64;64.20
81155;BME280;70631;50.436;7.826;2023-06-10T02:51:34;98941.09;;;16.62;64.50
81155;BME280;70631;50.436;7.826;2023-06-10T02:54:01;98944.78;;;16.61;64.79
81155;BME280;70631;50.436;7.826;2023-06-10T02:56:26;98939.41;;;16.61;64.76
81155;BME280;70631;50.436;7.826;2023-06-10T02:58:52;98932.94;;;16.55;64.23
81155;BME280;70631;50.436;7.826;2023-06-10T03:01:17;98939.72;;;16.51;64.75
81155;BME280;70631;50.436;7.826;2023-06-10T03:03:44;98939.06;;;16.49;64.54
81155;BME280;70631;50.436;7.826;2023-06-10T03:06:12;98937.56;;;16.46;64.71
81155;BME280;70631;50.436;7.826;2023-06-10T03:08:39;98944.63;;;16.47;65.01
81155;BME280;70631;50.436;7.826;2023-06-10T03:11:05;98941.47;;;16.44;64.65
81155;BME280;70631;50.436;7.826;2023-06-10T03:13:30;98940.00;;;16.41;64.51
81155;BME280;70631;50.436;7.826;2023-06-10T03:15:56;98940.19;;;16.40;65.00
81155;BME280;70631;50.436;7.826;2023-06-10T03:18:22;98939.34;;;16.39;65.17
81155;BME280;70631;50.436;7.826;2023-06-10T03:20:48;98937.03;;;16.36;65.12
81155;BME280;70631;50.436;7.826;2023-06-10T03:23:13;98943.63;;;16.34;65.18
81155;BME280;70631;50.436;7.826;2023-06-10T03:25:38;98940.28;;;16.32;65.47
81155;BME280;70631;50.436;7.826;2023-06-10T03:28:04;98939.84;;;16.28;65.42
81155;BME280;70631;50.436;7.826;2023-06-10T03:30:29;98941.38;;;16.23;65.84
81155;BME280;70631;50.436;7.826;2023-06-10T03:32:54;98944.00;;;16.16;66.33
81155;BME280;70631;50.436;7.826;2023-06-10T03:35:19;98944.19;;;16.14;66.06
81155;BME280;70631;50.436;7.826;2023-06-10T03:37:45;98945.41;;;16.12;65.95
81155;BME280;70631;50.436;7.826;2023-06-10T03:40:11;98944.94;;;16.08;66.34
81155;BME280;70631;50.436;7.826;2023-06-10T03:42:36;98950.69;;;16.05;66.45
81155;BME280;70631;50.436;7.826;2023-06-10T03:45:03;98953.19;;;16.07;66.03
81155;BME280;70631;50.436;7.826;2023-06-10T03:47:33;98953.38;;;16.05;66.47
81155;BME280;70631;50.436;7.826;2023-06-10T03:50:00;98950.69;;;16.05;66.30
81155;BME280;70631;50.436;7.826;2023-06-10T03:52:25;98946.66;;;16.01;66.80
81155;BME280;70631;50.436;7.826;2023-06-10T03:54:50;98950.38;;;16.00;67.02
81155;BME280;70631;50.436;7.826;2023-06-10T03:57:16;98942.50;;;15.99;66.76
81155;BME280;70631;50.436;7.826;2023-06-10T03:59:41;98949.34;;;16.01;66.77
81155;BME280;70631;50.436;7.826;2023-06-10T04:02:06;98949.16;;;16.03;66.53
81155;BME280;70631;50.436;7.826;2023-06-10T04:04:33;98953.53;;;16.04;66.65
81155;BME280;70631;50.436;7.826;2023-06-10T04:06:59;98949.47;;;16.08;66.67
81155;BME280;70631;50.436;7.826;2023-06-10T04:09:24;98954.28;;;16.12;66.28
81155;BME280;70631;50.436;7.826;2023-06-10T04:11:49;98953.91;;;16.15;66.50
81155;BME280;70631;50.436;7.826;2023-06-10T04:14:14;98956.22;;;16.18;66.21
81155;BME280;70631;50.436;7.826;2023-06-10T04:16:40;98954.00;;;16.22;65.98
81155;BME280;70631;50.436;7.826;2023-06-10T04:19:06;98956.81;;;16.29;66.17
81155;BME280;70631;50.436;7.826;2023-06-10T04:21:31;98965.13;;;16.34;65.85
81155;BME280;70631;50.436;7.826;2023-06-10T04:23:57;98954.00;;;16.37;66.03
81155;BME280;70631;50.436;7.826;2023-06-10T04:26:23;98970.41;;;16.42;65.85
81155;BME280;70631;50.436;7.826;2023-06-10T04:28:48;98964.47;;;16.46;65.54
81155;BME280;70631;50.436;7.826;2023-06-10T04:31:14;98965.78;;;16.50;65.57
81155;BME280;70631;50.436;7.826;2023-06-10T04:33:39;98968.94;;;16.54;65.74
81155;BME280;70631;50.436;7.826;2023-06-10T04:36:05;98967.34;;;16.60;65.37
81155;BME280;70631;50.436;7.826;2023-06-10T04:38:32;98967.78;;;16.63;65.30
81155;BME280;70631;50.436;7.826;2023-06-10T04:40:57;98976.16;;;16.68;65.10
81155;BME280;70631;50.436;7.826;2023-06-10T04:43:22;98967.53;;;16.73;65.24
81155;BME280;70631;50.436;7.826;2023-06-10T04:45:47;98968.44;;;16.80;65.01
81155;BME280;70631;50.436;7.826;2023-06-10T04:48:13;98969.34;;;16.87;65.07
81155;BME280;70631;50.436;7.826;2023-06-10T04:50:38;98969.25;;;16.95;64.83
81155;BME280;70631;50.436;7.826;2023-06-10T04:53:04;98966.63;;;17.02;64.33
81155;BME280;70631;50.436;7.826;2023-06-10T04:55:29;98967.34;;;17.10;64.24
81155;BME280;70631;50.436;7.826;2023-06-10T04:57:54;98971.22;;;17.23;64.42
81155;BME280;70631;50.436;7.826;2023-06-10T05:00:20;98970.03;;;17.32;63.98
81155;BME280;70631;50.436;7.826;2023-06-10T05:02:45;98972.25;;;17.43;63.72
81155;BME280;70631;50.436;7.826;2023-06-10T05:05:16;98973.22;;;17.57;63.36
81155;BME280;70631;50.436;7.826;2023-06-10T05:07:41;98971.03;;;17.95;62.65
81155;BME280;70631;50.436;7.826;2023-06-10T05:10:07;98966.34;;;20.13;58.17
81155;BME280;70631;50.436;7.826;2023-06-10T05:12:32;98967.34;;;22.41;53.71
81155;BME280;70631;50.436;7.826;2023-06-10T05:14:57;98972.53;;;24.22;49.66
81155;BME280;70631;50.436;7.826;2023-06-10T05:17:22;98976.19;;;25.72;46.65
81155;BME280;70631;50.436;7.826;2023-06-10T05:19:48;98974.84;;;27.02;43.61
81155;BME280;70631;50.436;7.826;2023-06-10T05:22:13;98970.44;;;28.14;40.91
81155;BME280;70631;50.436;7.826;2023-06-10T05:24:41;98974.84;;;29.09;39.08
81155;BME280;70631;50.436;7.826;2023-06-10T05:27:06;98973.91;;;29.97;37.50
81155;BME280;70631;50.436;7.826;2023-06-10T05:29:32;98970.22;;;30.83;36.11
81155;BME280;70631;50.436;7.826;2023-06-10T05:31:57;98971.44;;;31.60;34.61
81155;BME280;70631;50.436;7.826;2023-06-10T05:34:25;98970.03;;;32.36;33.74
81155;BME280;70631;50.436;7.826;2023-06-10T05:36:50;98963.94;;;33.10;32.26
81155;BME280;70631;50.436;7.826;2023-06-10T05:39:15;98964.09;;;33.76;31.31
81155;BME280;70631;50.436;7.826;2023-06-10T05:41:41;98968.31;;;34.38;30.27
81155;BME280;70631;50.436;7.826;2023-06-10T05:44:06;98966.31;;;34.99;29.68
81155;BME280;70631;50.436;7.826;2023-06-10T05:46:31;98961.47;;;35.54;28.33
81155;BME280;70631;50.436;7.826;2023-06-10T05:48:57;98966.00;;;36.08;27.83
81155;BME280;70631;50.436;7.826;2023-06-10T05:51:22;98962.84;;;36.63;27.05
81155;BME280;70631;50.436;7.826;2023-06-10T05:53:47;98969.44;;;37.16;26.16
81155;BME280;70631;50.436;7.826;2023-06-10T05:56:14;98967.03;;;37.66;25.36
81155;BME280;70631;50.436;7.826;2023-06-10T05:58:39;98963.91;;;38.02;23.47
81155;BME280;70631;50.436;7.826;2023-06-10T06:01:05;98964.03;;;38.32;23.08
81155;BME280;70631;50.436;7.826;2023-06-10T06:03:30;98967.53;;;38.58;22.61
81155;BME280;70631;50.436;7.826;2023-06-10T06:05:55;98964.13;;;38.52;22.35
81155;BME280;70631;50.436;7.826;2023-06-10T06:08:20;98965.59;;;38.50;21.88
81155;BME280;70631;50.436;7.826;2023-06-10T06:10:46;98968.19;;;38.55;22.05
81155;BME280;70631;50.436;7.826;2023-06-10T06:13:13;98966.56;;;38.92;21.69
81155;BME280;70631;50.436;7.826;2023-06-10T06:15:38;98967.47;;;39.14;21.25
81155;BME280;70631;50.436;7.826;2023-06-10T06:18:03;98961.22;;;39.37;20.74
81155;BME280;70631;50.436;7.826;2023-06-10T06:20:28;98956.50;;;39.59;20.86
81155;BME280;70631;50.436;7.826;2023-06-10T06:22:54;98958.91;;;39.81;20.83
81155;BME280;70631;50.436;7.826;2023-06-10T06:25:19;98959.94;;;39.97;20.31
81155;BME280;70631;50.436;7.826;2023-06-10T06:27:44;98957.63;;;39.99;20.37
81155;BME280;70631;50.436;7.826;2023-06-10T06:30:10;98950.34;;;40.31;20.19
81155;BME280;70631;50.436;7.826;2023-06-10T06:32:35;98956.97;;;40.84;19.60
81155;BME280;70631;50.436;7.826;2023-06-10T06:35:01;98958.34;;;41.27;19.14
81155;BME280;70631;50.436;7.826;2023-06-10T06:37:26;98963.41;;;41.49;18.63
81155;BME280;70631;50.436;7.826;2023-06-10T06:39:52;98962.34;;;41.66;18.49
81155;BME280;70631;50.436;7.826;2023-06-10T06:42:19;98961.38;;;41.74;19.08
81155;BME280;70631;50.436;7.826;2023-06-10T06:44:46;98964.44;;;41.57;18.83
81155;BME280;70631;50.436;7.826;2023-06-10T06:47:11;98972.75;;;41.41;18.63
81155;BME280;70631;50.436;7.826;2023-06-10T06:49:37;98974.53;;;41.09;19.18
81155;BME280;70631;50.436;7.826;2023-06-10T06:52:02;98974.06;;;40.71;19.18
81155;BME280;70631;50.436;7.826;2023-06-10T06:54:28;98985.94;;;40.68;19.36
81155;BME280;70631;50.436;7.826;2023-06-10T06:56:54;98984.34;;;41.03;19.65
81155;BME280;70631;50.436;7.826;2023-06-10T06:59:19;98979.75;;;41.47;18.98
81155;BME280;70631;50.436;7.826;2023-06-10T07:01:45;98992.88;;;41.71;18.43
81155;BME280;70631;50.436;7.826;2023-06-10T07:04:11;98984.22;;;41.76;18.73
81155;BME280;70631;50.436;7.826;2023-06-10T07:06:36;98982.56;;;41.88;18.74
81155;BME280;70631;50.436;7.826;2023-06-10T07:09:03;98982.47;;;42.12;18.12
81155;BME280;70631;50.436;7.826;2023-06-10T07:11:29;98985.09;;;41.93;18.50
81155;BME280;70631;50.436;7.826;2023-06-10T07:13:54;98982.56;;;41.88;18.62
81155;BME280;70631;50.436;7.826;2023-06-10T07:16:19;98985.19;;;41.96;18.24
81155;BME280;70631;50.436;7.826;2023-06-10T07:18:46;98994.84;;;41.99;18.38
81155;BME280;70631;50.436;7.826;2023-06-10T07:21:11;98994.13;;;42.02;17.97
81155;BME280;70631;50.436;7.826;2023-06-10T07:23:37;98991.22;;;42.10;18.58
81155;BME280;70631;50.436;7.826;2023-06-10T07:26:02;98996.94;;;42.02;18.36
81155;BME280;70631;50.436;7.826;2023-06-10T07:28:27;98993.53;;;41.80;18.35
81155;BME280;70631;50.436;7.826;2023-06-10T07:30:53;98988.53;;;42.02;18.79
81155;BME280;70631;50.436;7.826;2023-06-10T07:33:18;98995.47;;;42.20;18.19
81155;BME280;70631;50.436;7.826;2023-06-10T07:35:43;98996.03;;;42.54;18.24
81155;BME280;70631;50.436;7.826;2023-06-10T07:38:09;98999.34;;;43.07;18.05
81155;BME280;70631;50.436;7.826;2023-06-10T07:40:34;98994.09;;;43.05;17.55
81155;BME280;70631;50.436;7.826;2023-06-10T07:42:59;99000.78;;;42.69;18.22
81155;BME280;70631;50.436;7.826;2023-06-10T07:45:25;99001.88;;;42.80;17.82
81155;BME280;70631;50.436;7.826;2023-06-10T07:47:50;99002.59;;;43.09;17.36
81155;BME280;70631;50.436;7.826;2023-06-10T07:50:15;98989.75;;;43.08;17.56
81155;BME280;70631;50.436;7.826;2023-06-10T07:52:41;98995.91;;;43.29;17.34
81155;BME280;70631;50.436;7.826;2023-06-10T07:55:06;98994.81;;;43.53;17.14
81155;BME280;70631;50.436;7.826;2023-06-10T07:57:32;98992.53;;;43.39;17.59
81155;BME280;70631;50.436;7.826;2023-06-10T07:59:59;98999.78;;;43.09;17.20
81155;BME280;70631;50.436;7.826;2023-06-10T08:02:25;98995.22;;;43.00;18.14
81155;BME280;70631;50.436;7.826;2023-06-10T08:04:50;98990.06;;;43.38;17.84
81155;BME280;70631;50.436;7.826;2023-06-10T08:07:15;98991.34;;;43.40;17.20
81155;BME280;70631;50.436;7.826;2023-06-10T08:09:43;98982.94;;;43.24;17.92
81155;BME280;70631;50.436;7.826;2023-06-10T08:12:08;98990.28;;;43.29;17.54
81155;BME280;70631;50.436;7.826;2023-06-10T08:14:33;98988.09;;;43.57;17.13
81155;BME280;70631;50.436;7.826;2023-06-10T08:16:59;98991.69;;;43.74;16.77
81155;BME280;70631;50.436;7.826;2023-06-10T08:19:24;98987.69;;;43.75;17.07
81155;BME280;70631;50.436;7.826;2023-06-10T08:21:49;98986.91;;;43.58;17.45
81155;BME280;70631;50.436;7.826;2023-06-10T08:24:15;98987.06;;;43.66;17.09
81155;BME280;70631;50.436;7.826;2023-06-10T08:26:42;98983.69;;;43.76;16.98
81155;BME280;70631;50.436;7.826;2023-06-10T08:29:08;98986.84;;;43.55;17.53
81155;BME280;70631;50.436;7.826;2023-06-10T08:31:33;98988.47;;;43.21;17.75
81155;BME280;70631;50.436;7.826;2023-06-10T08:33:58;98980.91;;;43.06;17.33
81155;BME280;70631;50.436;7.826;2023-06-10T08:36:24;98986.44;;;43.02;17.28
81155;BME280;70631;50.436;7.826;2023-06-10T08:38:49;98986.25;;;43.46;17.59
81155;BME280;70631;50.436;7.826;2023-06-10T08:41:17;98984.00;;;43.71;17.03
81155;BME280;70631;50.436;7.826;2023-06-10T08:43:48;98985.31;;;43.96;16.66
81155;BME280;70631;50.436;7.826;2023-06-10T08:46:18;98977.66;;;44.12;16.75
81155;BME280;70631;50.436;7.826;2023-06-10T08:48:44;98970.16;;;44.20;15.99
81155;BME280;70631;50.436;7.826;2023-06-10T08:51:11;98979.31;;;44.17;16.71
81155;BME280;70631;50.436;7.826;2023-06-10T08:53:37;98986.38;;;43.88;16.60
81155;BME280;70631;50.436;7.826;2023-06-10T08:56:04;98981.09;;;43.48;16.63
81155;BME280;70631;50.436;7.826;2023-06-10T08:58:31;98977.38;;;43.44;16.56
81155;BME280;70631;50.436;7.826;2023-06-10T09:00:58;98972.88;;;43.39;17.30
81155;BME280;70631;50.436;7.826;2023-06-10T09:03:24;98976.56;;;43.43;17.35
81155;BME280;70631;50.436;7.826;2023-06-10T09:05:50;98976.75;;;43.70;16.96
81155;BME280;70631;50.436;7.826;2023-06-10T09:08:16;98970.69;;;43.87;17.10
81155;BME280;70631;50.436;7.826;2023-06-10T09:10:41;98970.25;;;44.04;16.99
81155;BME280;70631;50.436;7.826;2023-06-10T09:13:07;98963.28;;;44.17;16.69
81155;BME280;70631;50.436;7.826;2023-06-10T09:15:32;98973.97;;;44.08;16.03
81155;BME280;70631;50.436;7.826;2023-06-10T09:17:57;98974.50;;;43.59;16.56
81155;BME280;70631;50.436;7.826;2023-06-10T09:20:23;98963.84;;;43.30;16.78
81155;BME280;70631;50.436;7.826;2023-06-10T09:22:49;98967.47;;;43.30;16.76
81155;BME280;70631;50.436;7.826;2023-06-10T09:25:14;98959.13;;;43.34;17.29
81155;BME280;70631;50.436;7.826;2023-06-10T09:27:50;98960.25;;;43.49;17.09
81155;BME280;70631;50.436;7.826;2023-06-10T09:30:28;98960.50;;;43.79;17.14
81155;BME280;70631;50.436;7.826;2023-06-10T09:32:55;98947.50;;;43.90;17.44
81155;BME280;70631;50.436;7.826;2023-06-10T09:35:25;98945.06;;;44.08;15.81
81155;BME280;70631;50.436;7.826;2023-06-10T09:37:52;98939.44;;;43.88;16.55
81155;BME280;70631;50.436;7.826;2023-06-10T09:40:18;98951.47;;;43.89;15.90
81155;BME280;70631;50.436;7.826;2023-06-10T09:42:43;98952.69;;;43.69;16.88
81155;BME280;70631;50.436;7.826;2023-06-10T09:45:09;98954.97;;;43.82;16.33
81155;BME280;70631;50.436;7.826;2023-06-10T09:47:34;98952.81;;;43.76;16.95
81155;BME280;70631;50.436;7.826;2023-06-10T09:50:00;98951.16;;;43.55;16.12
81155;BME280;70631;50.436;7.826;2023-06-10T09:52:27;98945.69;;;43.08;16.71
81155;BME280;70631;50.436;7.826;2023-06-10T09:55:02;98967.53;;;42.67;16.70
81155;BME280;70631;50.436;7.826;2023-06-10T09:57:32;98958.88;;;42.29;16.93
81155;BME280;70631;50.436;7.826;2023-06-10T10:00:09;98958.47;;;42.42;16.64
81155;BME280;70631;50.436;7.826;2023-06-10T10:02:51;98950.72;;;42.52;17.26
81155;BME280;70631;50.436;7.826;2023-06-10T10:05:18;98953.16;;;42.53;16.90
81155;BME280;70631;50.436;7.826;2023-06-10T10:07:44;98946.88;;;42.28;17.77
81155;BME280;70631;50.436;7.826;2023-06-10T10:10:11;98947.25;;;42.42;17.16
81155;BME280;70631;50.436;7.826;2023-06-10T10:12:41;98940.41;;;42.56;17.24
81155;BME280;70631;50.436;7.826;2023-06-10T10:15:11;98950.00;;;42.55;16.78
81155;BME280;70631;50.436;7.826;2023-06-10T10:17:54;98948.38;;;42.54;16.76
81155;BME280;70631;50.436;7.826;2023-06-10T10:20:27;98948.03;;;42.27;16.27
81155;BME280;70631;50.436;7.826;2023-06-10T10:22:57;98937.78;;;41.88;16.61
81155;BME280;70631;50.436;7.826;2023-06-10T10:25:24;98941.75;;;41.87;16.08
81155;BME280;70631;50.436;7.826;2023-06-10T10:27:57;98932.75;;;41.65;16.31
81155;BME280;70631;50.436;7.826;2023-06-10T10:30:24;98945.41;;;41.75;16.38
81155;BME280;70631;50.436;7.826;2023-06-10T10:35:23;98943.31;;;40.95;16.59
81155;BME280;70631;50.436;7.826;2023-06-10T10:37:53;98940.41;;;40.67;16.87
81155;BME280;70631;50.436;7.826;2023-06-10T10:40:21;98947.41;;;40.61;17.39
81155;BME280;70631;50.436;7.826;2023-06-10T10:42:48;98940.22;;;40.27;17.57
81155;BME280;70631;50.436;7.826;2023-06-10T10:45:14;98925.66;;;39.88;17.92
81155;BME280;70631;50.436;7.826;2023-06-10T10:47:39;98927.06;;;39.82;17.82
81155;BME280;70631;50.436;7.826;2023-06-10T10:50:14;98933.13;;;40.17;17.46
81155;BME280;70631;50.436;7.826;2023-06-10T10:52:56;98922.84;;;39.97;17.45
81155;BME280;70631;50.436;7.826;2023-06-10T10:55:24;98936.72;;;39.22;18.41
81155;BME280;70631;50.436;7.826;2023-06-10T11:00:30;98934.06;;;39.05;18.33
81155;BME280;70631;50.436;7.826;2023-06-10T11:05:41;98929.44;;;39.92;17.58
81155;BME280;70631;50.436;7.826;2023-06-10T11:08:08;98917.06;;;40.14;17.79
81155;BME280;70631;50.436;7.826;2023-06-10T11:10:38;98920.44;;;40.20;17.48
81155;BME280;70631;50.436;7.826;2023-06-10T11:13:08;98923.56;;;39.85;17.24
81155;BME280;70631;50.436;7.826;2023-06-10T11:15:38;98923.59;;;39.43;18.04
81155;BME280;70631;50.436;7.826;2023-06-10T11:18:20;98914.38;;;39.01;17.98
81155;BME280;70631;50.436;7.826;2023-06-10T11:26:14;98926.09;;;38.01;18.86
81155;BME280;70631;50.436;7.826;2023-06-10T11:33:54;98914.63;;;35.66;20.83
81155;BME280;70631;50.436;7.826;2023-06-10T11:36:19;98924.88;;;34.66;21.75
81155;BME280;70631;50.436;7.826;2023-06-10T11:38:45;98924.66;;;34.35;21.87
81155;BME280;70631;50.436;7.826;2023-06-10T11:41:11;98917.84;;;34.14;22.37
81155;BME280;70631;50.436;7.826;2023-06-10T11:43:42;98911.66;;;34.03;23.06
81155;BME280;70631;50.436;7.826;2023-06-10T11:46:08;98907.41;;;34.24;23.01
81155;BME280;70631;50.436;7.826;2023-06-10T11:48:33;98898.91;;;34.21;23.66
81155;BME280;70631;50.436;7.826;2023-06-10T11:50:59;98896.03;;;34.26;23.78
81155;BME280;70631;50.436;7.826;2023-06-10T11:53:24;98910.47;;;34.23;23.28
81155;BME280;70631;50.436;7.826;2023-06-10T11:55:50;98899.06;;;33.97;23.91
81155;BME280;70631;50.436;7.826;2023-06-10T11:58:17;98903.81;;;33.78;23.97
81155;BME280;70631;50.436;7.826;2023-06-10T12:00:45;98899.47;;;33.39;24.05
81155;BME280;70631;50.436;7.826;2023-06-10T12:03:10;98904.44;;;33.18;24.24
81155;BME280;70631;50.436;7.826;2023-06-10T12:05:36;98902.03;;;32.93;24.48
81155;BME280;70631;50.436;7.826;2023-06-10T12:08:11;98897.81;;;32.58;25.01
81155;BME280;70631;50.436;7.826;2023-06-10T12:10:41;98895.25;;;32.85;24.91
81155;BME280;70631;50.436;7.826;2023-06-10T12:13:08;98888.19;;;32.98;25.03
81155;BME280;70631;50.436;7.826;2023-06-10T12:15:34;98887.94;;;33.13;24.91
81155;BME280;70631;50.436;7.826;2023-06-10T12:17:59;98904.91;;;33.25;24.62
81155;BME280;70631;50.436;7.826;2023-06-10T12:20:30;98887.06;;;32.80;24.31
81155;BME280;70631;50.436;7.826;2023-06-10T12:22:58;98883.94;;;32.63;24.56
81155;BME280;70631;50.436;7.826;2023-06-10T12:25:25;98871.56;;;32.60;24.63
81155;BME280;70631;50.436;7.826;2023-06-10T12:27:52;98870.91;;;32.44;24.87
81155;BME280;70631;50.436;7.826;2023-06-10T12:30:26;98871.88;;;32.35;24.93
81155;BME280;70631;50.436;7.826;2023-06-10T12:32:51;98865.16;;;32.41;25.37
81155;BME280;70631;50.436;7.826;2023-06-10T12:35:21;98877.59;;;32.62;24.94
81155;BME280;70631;50.436;7.826;2023-06-10T12:38:03;98877.47;;;32.48;24.79
81155;BME280;70631;50.436;7.826;2023-06-10T12:40:33;98866.34;;;32.59;24.42
81155;BME280;70631;50.436;7.826;2023-06-10T12:43:00;98871.56;;;32.60;24.74
81155;BME280;70631;50.436;7.826;2023-06-10T12:45:33;98878.13;;;32.64;24.77
81155;BME280;70631;50.436;7.826;2023-06-10T12:48:09;98882.31;;;32.38;24.51
81155;BME280;70631;50.436;7.826;2023-06-10T12:50:41;98880.63;;;32.13;24.53
81155;BME280;70631;50.436;7.826;2023-06-10T12:53:06;98872.41;;;32.08;25.56
81155;BME280;70631;50.436;7.826;2023-06-10T12:55:32;98872.09;;;32.09;24.72
81155;BME280;70631;50.436;7.826;2023-06-10T12:57:59;98883.31;;;31.94;24.72
81155;BME280;70631;50.436;7.826;2023-06-10T13:00:25;98874.28;;;31.88;25.08
81155;BME280;70631;50.436;7.826;2023-06-10T13:02:54;98877.06;;;31.83;25.24
81155;BME280;70631;50.436;7.826;2023-06-10T13:05:19;98875.13;;;31.84;25.11
81155;BME280;70631;50.436;7.826;2023-06-10T13:07:46;98868.69;;;31.94;24.86
81155;BME280;70631;50.436;7.826;2023-06-10T13:10:12;98879.38;;;32.00;25.48
81155;BME280;70631;50.436;7.826;2023-06-10T13:12:38;98858.44;;;31.99;25.45
81155;BME280;70631;50.436;7.826;2023-06-10T13:15:04;98858.78;;;31.92;25.89
81155;BME280;70631;50.436;7.826;2023-06-10T13:17:29;98859.84;;;31.62;26.35